Minnetrista, MN

7:40 AM CST on March 03, 2015 (GMT -0600)
Flying Cloud | Change Station
CLOSE
Current Station
Airport
Location: Minneapolis Flying Cloud,
Elevation: 906 ft
Nearby Weather Stations
Active Advisory: Winter Weather Advisory

Elev 906 ft 44.83 °N, 93.46 °W | Updated 11 minutes ago

Snow
Snow
22 °F
Feels Like 14 °F
N
6
Wind Variable Wind from SSE

Today
High -- | Low -- °F
--% Chance of Precip.
Yesterday
High -- | Low -- °F
Precip. -- in
6:48 AM 6:04 PM
Waxing Gibbous, 96% visible
Pressure 29.71 in
Visibility 0.2 miles
Clouds
Windchill 14 °F
Dew Point 18 °F
Humidity 85%
Rainfall 0.00 in
Snow Depth Not available.
UV Not available.
Pollen .50 out of 12
Air Quality Not available.
Flu Activity Not available.
SPECI KFCM 031329Z 16005KT 1/4SM SN FZFG VV017 M06/M08 A2971 RMK AO2 SNB01 P0001 T10561078

More Conditions Fewer Conditions

Pressure 29.71 in
Visibility 0.2 miles
Clouds
Windchill 14 °F
Dew Point 18 °F
Humidity 85%
Rainfall 0.00 in
Snow Depth Not available.
UV Not available.
Pollen .50 out of 12
Air Quality Not available.
Flu Activity Not available.
SPECI KFCM 031329Z 16005KT 1/4SM SN FZFG VV017 M06/M08 A2971 RMK AO2 SNB01 P0001 T10561078

More Conditions Fewer Conditions

10-Day Weather Forecast

Almanac

Astronomy

Mar. 03, 2015 Rise Set
Actual Time
Civil Twilight
Nautical Twilight
Astronomical Twilight
Moon
Length of Visible Light
Length of Day
Tomorrow will be .
, % of the Moon is Illuminated

Today's Extremes

State Highs State Lows

Community

WunderPhotos

Upload Photos

1,802,101 photos uploaded!

WunderBlogs® & News

Nearby

Air Quality

  Air Quality AQ Index Pollutant
Not available.

Snow Depth

Station Depth Elevation

Earthquake Activity

City Distance Mag. Time & Date
Minimum magnitude displayed is 2.5.

Coastal Water Temperatures

Place Temperature

Nearby Weather Stations

Winter Weather Advisory
Statement as of 4:13 AM CST on March 03, 2015

... Winter Weather Advisory remains in effect until 9 PM CST this
evening...

* timing... snow will develop early this morning and taper off by
early afternoon as northwest winds increase behind a cold front.
The strong winds will produce areas of blowing snow through
early evening.

* Snow accumulations... 1 to 3 inches.

* Winds/visibility... wind gusts around 35 mph will produce areas
of blowing snow and visibilities less than one mile in open
areas.

* Impacts... travel may be difficult.

Precautionary/preparedness actions...

A Winter Weather Advisory for snow and blowing snow means that
visibilities will be limited due to a combination of falling and
blowing snow. Use caution when traveling... especially in open
areas.



Borghoff